Time;durP1;ratioP1;P1;durP2;ratioP2;P2;SDS_P1;SDS_P2;PMS_P1;PMS_P2;Temp;Humidity;BMP_temperature;BMP_pressure;BME280_temperature;BME280_humidity;BME280_pressure;Samples;Min_cycle;Max_cycle;Signal;HPM_P1;HPM_P2
2021/12/26 00:00:59;;;;;;;43.53;23.63;;;;;;;5.43;90.54;94347.13;5088240;28;20639;-79
2021/12/26 00:03:28;;;;;;;54.17;26.57;;;;;;;5.39;90.95;94336.44;5089041;28;20296;-79
2021/12/26 00:06:05;;;;;;;45.90;25.00;;;;;;;5.41;91.02;94331.06;5089662;28;20201;-79
2021/12/26 00:08:34;;;;;;;50.50;26.37;;;;;;;5.00;92.13;94333.69;5082077;28;20233;-80
2021/12/26 00:11:03;;;;;;;46.43;25.80;;;;;;;4.69;92.93;94338.50;5082394;28;20204;-79
2021/12/26 00:13:31;;;;;;;51.23;26.80;;;;;;;4.45;100.00;94343.09;5082492;28;20200;-80
2021/12/26 00:16:01;;;;;;;50.67;25.77;;;;;;;4.47;99.52;94332.63;5087938;28;20205;-79
2021/12/26 00:18:29;;;;;;;48.13;25.53;;;;;;;4.44;99.24;94330.44;5082395;28;20211;-79
2021/12/26 00:20:59;;;;;;;52.73;26.77;;;;;;;4.60;98.41;94337.84;5081913;28;20216;-79
2021/12/26 00:23:27;;;;;;;45.83;25.77;;;;;;;4.65;97.69;94343.22;5088273;28;20273;-79
2021/12/26 00:25:56;;;;;;;47.83;24.37;;;;;;;4.66;98.24;94342.25;5082285;28;20763;-79
2021/12/26 00:28:24;;;;;;;49.30;25.70;;;;;;;4.63;98.44;94337.47;5082931;28;20236;-78
2021/12/26 00:30:52;;;;;;;50.13;25.30;;;;;;;4.62;98.01;94341.00;5088793;28;20211;-79
2021/12/26 00:33:20;;;;;;;53.37;25.03;;;;;;;4.58;98.04;94335.47;5091686;28;20192;-79
2021/12/26 00:35:49;;;;;;;47.40;25.73;;;;;;;4.67;97.72;94338.69;5088919;28;20205;-79
2021/12/26 00:38:19;;;;;;;45.53;25.57;;;;;;;4.68;96.92;94347.19;5088811;28;20918;-80
2021/12/26 00:40:47;;;;;;;53.70;26.13;;;;;;;4.51;97.72;94331.25;5089151;28;20288;-78
2021/12/26 00:43:16;;;;;;;48.97;25.57;;;;;;;4.67;96.84;94346.41;5081625;28;20642;-79
2021/12/26 00:45:44;;;;;;;50.50;26.53;;;;;;;4.78;96.63;94347.66;5093682;28;20292;-79
2021/12/26 00:48:12;;;;;;;61.23;30.23;;;;;;;4.77;95.53;94341.69;5088658;28;20634;-79
2021/12/26 00:50:42;;;;;;;65.63;32.87;;;;;;;4.81;96.30;94349.84;5088507;28;20204;-78
2021/12/26 00:53:10;;;;;;;64.20;32.53;;;;;;;4.73;95.45;94340.50;5088407;28;20292;-79
2021/12/26 00:55:40;;;;;;;57.47;30.20;;;;;;;4.68;95.99;94357.47;5088574;28;20212;-80
2021/12/26 00:58:08;;;;;;;64.27;32.37;;;;;;;4.61;96.17;94338.66;5087932;28;20205;-78
2021/12/26 01:00:39;;;;;;;58.97;29.60;;;;;;;4.62;95.74;94341.00;5088626;28;20205;-79
2021/12/26 01:03:08;;;;;;;55.07;29.00;;;;;;;4.65;96.01;94350.16;5082081;28;20204;-79
2021/12/26 01:05:37;;;;;;;55.73;29.13;;;;;;;4.53;96.57;94353.25;5087759;28;20200;-79
2021/12/26 01:08:08;;;;;;;60.33;31.00;;;;;;;4.54;96.98;94351.47;5086048;28;20205;-80
2021/12/26 01:10:41;;;;;;;63.43;31.17;;;;;;;4.62;95.31;94345.41;5089075;28;20232;-79
2021/12/26 01:13:16;;;;;;;58.23;29.60;;;;;;;4.56;94.13;94339.19;5088998;28;20213;-80
2021/12/26 01:15:45;;;;;;;56.00;30.10;;;;;;;4.35;96.27;94331.56;5091594;28;20800;-78
2021/12/26 01:18:15;;;;;;;54.10;29.70;;;;;;;4.30;97.98;94334.69;5092056;28;20655;-78
2021/12/26 01:20:50;;;;;;;56.63;30.47;;;;;;;4.21;98.24;94338.41;5092002;28;20208;-78
2021/12/26 01:23:19;;;;;;;58.67;31.97;;;;;;;4.23;99.00;94333.84;5086186;28;20200;-78
2021/12/26 01:25:51;;;;;;;66.23;31.77;;;;;;;4.16;99.27;94324.47;5091746;28;20746;-79
2021/12/26 01:28:21;;;;;;;70.93;34.83;;;;;;;4.14;98.12;94324.69;5085552;28;20228;-79
2021/12/26 01:30:49;;;;;;;71.07;35.70;;;;;;;3.89;99.00;94323.50;5086039;28;20204;-79
2021/12/26 01:33:19;;;;;;;68.40;34.20;;;;;;;3.54;100.00;94307.19;5095805;28;20204;-78
2021/12/26 01:35:47;;;;;;;75.40;35.70;;;;;;;3.21;100.00;94298.34;5091232;28;20212;-79
2021/12/26 01:38:17;;;;;;;68.43;36.43;;;;;;;3.28;100.00;94312.84;5092039;28;20247;-78
2021/12/26 01:40:48;;;;;;;60.80;32.90;;;;;;;3.24;100.00;94303.91;5092204;28;20239;-79
2021/12/26 01:43:20;;;;;;;69.30;34.67;;;;;;;3.35;100.00;94298.28;5091210;28;20196;-78
2021/12/26 01:45:49;;;;;;;73.73;34.87;;;;;;;3.52;100.00;94306.56;5095614;28;20288;-78
2021/12/26 01:48:17;;;;;;;64.27;34.53;;;;;;;3.63;100.00;94307.84;5090444;28;20209;-78
2021/12/26 01:50:47;;;;;;;64.40;31.97;;;;;;;3.61;100.00;94309.81;5092034;28;20653;-77
2021/12/26 01:53:15;;;;;;;58.17;30.73;;;;;;;3.60;100.00;94303.09;5090450;28;20648;-78
2021/12/26 01:55:45;;;;;;;58.10;30.03;;;;;;;3.62;100.00;94298.53;5091172;28;20284;-79
2021/12/26 01:58:16;;;;;;;53.77;29.20;;;;;;;3.51;100.00;94310.13;5091048;28;20201;-79
2021/12/26 02:00:48;;;;;;;54.73;28.67;;;;;;;3.57;100.00;94313.72;5091451;28;20714;-78
2021/12/26 02:03:16;;;;;;;50.20;26.73;;;;;;;3.57;100.00;94277.75;5091921;28;20205;-78
2021/12/26 02:05:44;;;;;;;54.77;29.93;;;;;;;3.63;100.00;94298.38;5084115;28;20201;-79
2021/12/26 02:08:13;;;;;;;55.20;28.60;;;;;;;3.71;100.00;94294.88;5091394;28;20284;-78
2021/12/26 02:10:42;;;;;;;61.80;30.77;;;;;;;3.72;100.00;94304.94;5090579;28;20278;-77
2021/12/26 02:13:10;;;;;;;59.17;31.23;;;;;;;3.77;100.00;94282.09;5091287;28;20216;-78
2021/12/26 02:15:38;;;;;;;51.23;29.27;;;;;;;3.73;100.00;94296.28;5090962;28;20203;-78
2021/12/26 02:18:08;;;;;;;60.90;29.83;;;;;;;3.70;100.00;94288.94;5090687;28;20240;-78
2021/12/26 02:20:53;;;;;;;56.33;30.60;;;;;;;3.74;100.00;94295.31;5083582;28;20220;-78
2021/12/26 02:23:26;;;;;;;54.70;28.93;;;;;;;3.79;100.00;94289.59;5084065;28;20217;-79
2021/12/26 02:28:44;;;;;;;54.37;30.77;;;;;;;3.81;100.00;94293.56;5091040;28;20792;-80
2021/12/26 02:31:14;;;;;;;57.50;29.93;;;;;;;3.88;100.00;94288.50;5090775;28;20204;-78
2021/12/26 02:33:43;;;;;;;59.10;30.87;;;;;;;3.86;100.00;94295.59;5089982;28;20613;-77
2021/12/26 02:36:13;;;;;;;59.20;30.80;;;;;;;3.90;100.00;94291.66;5090781;28;20215;-79
2021/12/26 02:38:45;;;;;;;56.33;29.07;;;;;;;3.96;100.00;94298.63;5091516;28;20281;-78
2021/12/26 02:41:13;;;;;;;55.57;31.37;;;;;;;4.05;100.00;94292.38;5090827;28;20211;-78
2021/12/26 02:43:40;;;;;;;57.47;31.23;;;;;;;4.01;100.00;94302.22;5090120;28;20204;-77
2021/12/26 02:46:08;;;;;;;52.80;29.10;;;;;;;3.89;100.00;94285.75;5083487;28;20201;-78
2021/12/26 02:48:39;;;;;;;59.43;30.70;;;;;;;3.92;100.00;94295.66;5090759;28;20287;-78
2021/12/26 02:51:08;;;;;;;58.07;30.33;;;;;;;3.86;100.00;94288.69;5083995;28;20225;-79
2021/12/26 02:53:37;;;;;;;55.03;29.63;;;;;;;3.49;100.00;94301.81;5090660;28;20209;-79
2021/12/26 02:56:06;;;;;;;53.97;28.13;;;;;;;3.32;100.00;94297.84;5090051;28;20200;-78
2021/12/26 02:58:34;;;;;;;55.40;29.73;;;;;;;3.07;100.00;94297.41;5089678;28;20208;-78
2021/12/26 03:01:08;;;;;;;53.70;29.50;;;;;;;3.18;100.00;94293.56;5090021;28;20201;-79
2021/12/26 03:03:36;;;;;;;56.27;29.43;;;;;;;3.29;100.00;94296.44;5084452;28;20208;-77
2021/12/26 03:06:12;;;;;;;53.90;29.13;;;;;;;3.47;100.00;94295.25;5083522;28;20293;-79
2021/12/26 03:08:42;;;;;;;50.70;27.43;;;;;;;3.52;100.00;94285.22;5083482;28;20240;-79
2021/12/26 03:11:10;;;;;;;51.43;28.57;;;;;;;3.64;100.00;94289.66;5089892;28;20240;-78
2021/12/26 03:13:38;;;;;;;59.53;29.93;;;;;;;3.68;100.00;94293.47;5089286;28;20277;-78
2021/12/26 03:16:06;;;;;;;57.23;29.63;;;;;;;3.76;100.00;94288.19;5090874;28;20720;-78
2021/12/26 03:18:35;;;;;;;52.60;28.90;;;;;;;3.81;100.00;94285.84;5089024;28;20283;-79
2021/12/26 03:21:03;;;;;;;52.03;27.83;;;;;;;3.78;100.00;94267.47;5090004;28;20201;-79
2021/12/26 03:23:32;;;;;;;50.60;27.77;;;;;;;3.88;100.00;94288.50;5089642;28;20243;-78
2021/12/26 03:26:05;;;;;;;50.33;27.90;;;;;;;3.88;100.00;94276.44;5090571;28;20205;-79
2021/12/26 03:28:34;;;;;;;51.90;28.40;;;;;;;3.87;100.00;94299.75;5090322;28;20339;-78
2021/12/26 03:31:03;;;;;;;59.33;29.83;;;;;;;3.86;100.00;94275.03;5089575;28;20221;-78
2021/12/26 03:33:32;;;;;;;60.17;30.60;;;;;;;3.78;100.00;94291.38;5089891;28;20232;-78
2021/12/26 03:36:01;;;;;;;68.53;34.33;;;;;;;3.87;100.00;94285.13;5089876;28;20326;-79
2021/12/26 03:38:29;;;;;;;75.23;36.00;;;;;;;3.90;100.00;94294.22;5090758;28;20205;-80
2021/12/26 03:40:57;;;;;;;74.63;36.57;;;;;;;3.88;100.00;94275.66;5091083;28;20593;-81
2021/12/26 03:43:27;;;;;;;68.67;36.60;;;;;;;4.01;100.00;94293.75;5091421;28;20555;-80
2021/12/26 03:45:56;;;;;;;68.53;36.67;;;;;;;3.92;100.00;94305.16;5098357;28;20679;-81
2021/12/26 03:48:25;;;;;;;69.37;35.70;;;;;;;3.87;100.00;94297.97;5107888;28;20799;-80
2021/12/26 03:50:54;;;;;;;74.97;37.03;;;;;;;3.86;100.00;94298.16;5093273;28;20691;-80
2021/12/26 03:53:21;;;;;;;73.90;36.83;;;;;;;3.92;100.00;94300.81;5080171;28;20609;-81
2021/12/26 03:55:50;;;;;;;74.60;37.63;;;;;;;3.93;100.00;94314.44;5087783;28;20234;-80
2021/12/26 03:58:19;;;;;;;58.30;31.17;;;;;;;3.81;100.00;94290.22;5090681;28;20971;-81
2021/12/26 04:00:50;;;;;;;62.77;32.43;;;;;;;3.88;100.00;94309.06;5086803;28;20325;-80
2021/12/26 04:03:18;;;;;;;60.43;32.10;;;;;;;3.89;100.00;94310.66;5081744;28;20208;-81
2021/12/26 04:05:47;;;;;;;60.43;34.17;;;;;;;3.90;100.00;94307.09;5090606;28;20296;-80
2021/12/26 04:08:15;;;;;;;61.70;33.17;;;;;;;3.76;100.00;94293.34;5083149;28;20212;-79
2021/12/26 04:10:43;;;;;;;59.10;31.57;;;;;;;3.96;100.00;94299.44;5089576;28;20220;-80
2021/12/26 04:13:11;;;;;;;58.93;31.17;;;;;;;3.89;100.00;94323.50;5090734;28;20993;-80
2021/12/26 04:15:41;;;;;;;56.07;31.00;;;;;;;3.93;100.00;94315.22;5083667;28;20200;-81
2021/12/26 04:18:10;;;;;;;56.97;29.27;;;;;;;3.99;100.00;94313.69;5090117;28;21000;-79
2021/12/26 04:20:39;;;;;;;59.30;30.23;;;;;;;4.00;100.00;94317.84;5085057;28;20689;-79
2021/12/26 04:23:07;;;;;;;58.07;31.43;;;;;;;3.83;100.00;94307.06;5089266;28;20281;-81
2021/12/26 04:25:35;;;;;;;62.73;31.80;;;;;;;3.71;100.00;94305.16;5090951;28;20200;-81
2021/12/26 04:28:03;;;;;;;51.77;29.77;;;;;;;3.55;100.00;94302.84;5089443;28;20254;-81
2021/12/26 04:30:32;;;;;;;63.27;31.63;;;;;;;3.56;100.00;94301.84;5084393;28;20290;-82
2021/12/26 04:33:01;;;;;;;60.87;32.53;;;;;;;3.77;100.00;94322.41;5092361;28;20188;-79
2021/12/26 04:35:30;;;;;;;63.73;31.83;;;;;;;3.83;100.00;94299.34;5090425;28;20200;-77
2021/12/26 04:37:58;;;;;;;54.37;30.60;;;;;;;3.89;100.00;94320.94;5089388;28;20675;-78
2021/12/26 04:40:28;;;;;;;62.97;32.47;;;;;;;3.98;100.00;94312.13;5088453;28;20254;-77
2021/12/26 04:42:56;;;;;;;58.80;31.47;;;;;;;4.09;100.00;94321.88;5087939;28;20200;-77
2021/12/26 04:45:25;;;;;;;54.00;27.87;;;;;;;3.92;100.00;94316.22;5094792;28;20291;-76
2021/12/26 04:47:53;;;;;;;55.27;27.83;;;;;;;3.95;100.00;94317.63;5093045;28;20196;-78
2021/12/26 04:50:26;;;;;;;48.43;27.60;;;;;;;3.97;100.00;94319.03;5092095;28;20221;-78
2021/12/26 04:52:57;;;;;;;53.43;28.83;;;;;;;4.11;100.00;94326.81;5092445;28;20227;-79
2021/12/26 04:55:28;;;;;;;55.87;32.00;;;;;;;4.22;100.00;94328.88;5085379;28;20246;-77
2021/12/26 04:57:56;;;;;;;62.30;33.00;;;;;;;4.26;100.00;94332.69;5092845;28;20189;-79
2021/12/26 05:00:27;;;;;;;70.10;37.27;;;;;;;4.21;100.00;94315.25;5092568;28;20200;-78
2021/12/26 05:02:56;;;;;;;64.03;35.10;;;;;;;4.24;100.00;94329.50;5092382;28;20742;-79
2021/12/26 05:05:26;;;;;;;58.30;34.33;;;;;;;4.23;100.00;94333.84;5085398;28;20205;-79
2021/12/26 05:07:56;;;;;;;62.27;33.30;;;;;;;4.24;100.00;94334.66;5092578;28;20233;-79
2021/12/26 05:10:28;;;;;;;64.33;35.10;;;;;;;4.28;100.00;94325.56;5092966;28;20598;-78
2021/12/26 05:12:58;;;;;;;66.27;36.17;;;;;;;4.34;100.00;94335.09;5092360;28;20242;-79
2021/12/26 05:15:27;;;;;;;58.73;32.07;;;;;;;4.26;100.00;94324.97;5094712;28;20203;-78
2021/12/26 05:17:56;;;;;;;65.50;33.77;;;;;;;4.42;100.00;94335.75;5094947;28;20539;-79
2021/12/26 05:20:25;;;;;;;69.00;35.53;;;;;;;4.55;100.00;94340.19;5092070;28;20200;-79
2021/12/26 05:22:55;;;;;;;67.20;35.90;;;;;;;4.63;100.00;94341.81;5092252;28;20208;-80
2021/12/26 05:25:26;;;;;;;62.00;34.40;;;;;;;4.63;100.00;94345.19;5091859;28;20200;-78
2021/12/26 05:27:54;;;;;;;68.37;36.00;;;;;;;4.63;100.00;94352.09;5092028;28;20232;-78
2021/12/26 05:30:24;;;;;;;66.20;36.20;;;;;;;4.66;100.00;94362.81;5091740;28;20240;-78
2021/12/26 05:32:53;;;;;;;61.43;34.63;;;;;;;4.67;100.00;94361.06;5091095;28;20201;-78
2021/12/26 05:35:23;;;;;;;61.60;33.50;;;;;;;4.67;100.00;94351.56;5092837;28;20200;-80
2021/12/26 05:37:52;;;;;;;64.60;35.23;;;;;;;4.66;100.00;94323.44;5078744;28;20699;-81
2021/12/26 05:40:20;;;;;;;65.93;34.53;;;;;;;4.77;100.00;94353.78;5092505;28;20204;-80
2021/12/26 05:42:51;;;;;;;68.13;35.87;;;;;;;4.83;100.00;94342.72;5092436;28;20262;-81
2021/12/26 05:45:19;;;;;;;71.67;39.07;;;;;;;4.79;100.00;94337.16;5080989;28;20210;-82
2021/12/26 05:47:47;;;;;;;68.87;36.47;;;;;;;4.55;100.00;94332.47;5093437;28;20196;-80
2021/12/26 05:50:19;;;;;;;64.93;36.07;;;;;;;4.22;100.00;94332.25;5092524;28;20307;-79
2021/12/26 05:52:48;;;;;;;70.83;37.23;;;;;;;4.06;100.00;94337.69;5091363;28;20228;-78
2021/12/26 05:55:17;;;;;;;65.30;31.90;;;;;;;4.14;100.00;94326.44;5090274;28;20736;-79
2021/12/26 05:57:45;;;;;;;57.17;31.00;;;;;;;4.17;100.00;94321.75;5085761;28;20703;-80
2021/12/26 06:00:17;;;;;;;56.17;30.43;;;;;;;4.27;100.00;94306.00;5085485;28;20193;-79
2021/12/26 06:02:49;;;;;;;62.33;31.37;;;;;;;4.24;100.00;94314.09;5085426;28;20212;-79
2021/12/26 06:05:17;;;;;;;57.70;29.60;;;;;;;4.34;100.00;94299.09;5091396;28;20619;-79
2021/12/26 06:07:44;;;;;;;58.00;30.87;;;;;;;4.44;100.00;94300.34;5091445;28;20208;-79
2021/12/26 06:10:13;;;;;;;54.20;28.87;;;;;;;4.54;100.00;94287.16;5091256;28;20623;-79
2021/12/26 06:12:41;;;;;;;58.10;30.87;;;;;;;4.61;100.00;94287.19;5083542;28;20235;-80
2021/12/26 06:15:09;;;;;;;55.00;30.97;;;;;;;4.73;100.00;94285.66;5084628;28;20545;-80
2021/12/26 06:17:38;;;;;;;46.63;27.37;;;;;;;4.68;100.00;94299.09;5096066;28;20212;-77
2021/12/26 06:20:13;;;;;;;49.87;26.70;;;;;;;4.52;100.00;94277.06;5084698;28;20201;-79
2021/12/26 06:22:42;;;;;;;44.10;25.93;;;;;;;4.72;100.00;94273.78;5085231;28;20520;-78
2021/12/26 06:25:10;;;;;;;45.20;24.97;;;;;;;4.76;100.00;94291.19;5091166;28;20208;-78
2021/12/26 06:27:39;;;;;;;43.60;24.40;;;;;;;4.85;100.00;94273.84;5090547;28;20228;-78
2021/12/26 06:30:09;;;;;;;43.90;23.63;;;;;;;4.89;100.00;94257.81;5090638;28;20711;-78
2021/12/26 06:32:39;;;;;;;42.57;23.80;;;;;;;4.88;100.00;94271.66;5083796;28;20312;-79
2021/12/26 06:35:08;;;;;;;42.13;23.47;;;;;;;4.82;100.00;94266.50;5087204;28;20209;-78
2021/12/26 06:37:36;;;;;;;42.83;23.10;;;;;;;4.79;100.00;94282.34;5090601;28;20674;-79
2021/12/26 06:40:04;;;;;;;41.97;22.90;;;;;;;4.79;100.00;94295.19;5087200;28;20209;-78
2021/12/26 06:42:37;;;;;;;43.23;23.77;;;;;;;4.90;100.00;94315.25;5087830;28;20216;-78
2021/12/26 06:45:06;;;;;;;40.10;23.30;;;;;;;4.94;100.00;94314.66;5090793;28;20204;-79
2021/12/26 06:47:35;;;;;;;44.87;23.57;;;;;;;4.98;100.00;94315.88;5091670;28;20205;-78
2021/12/26 06:50:05;;;;;;;44.87;24.80;;;;;;;5.04;100.00;94306.59;5089999;28;20208;-79
2021/12/26 06:52:33;;;;;;;48.73;26.27;;;;;;;5.13;100.00;94308.00;5090467;28;20286;-78
2021/12/26 06:55:01;;;;;;;47.10;25.97;;;;;;;5.16;100.00;94305.06;5089920;28;20753;-72
2021/12/26 06:57:29;;;;;;;46.67;26.60;;;;;;;5.15;100.00;94324.84;5089978;28;20217;-71
2021/12/26 06:59:57;;;;;;;46.00;25.97;;;;;;;5.12;100.00;94325.25;5089791;28;20197;-72
2021/12/26 07:02:25;;;;;;;41.93;24.90;;;;;;;5.21;100.00;94345.66;5089057;28;20657;-72
2021/12/26 07:04:53;;;;;;;46.93;26.47;;;;;;;5.08;100.00;94324.03;5089454;28;20204;-71
2021/12/26 07:07:23;;;;;;;45.80;26.07;;;;;;;5.11;100.00;94349.38;5088655;28;20293;-73
2021/12/26 07:09:51;;;;;;;71.03;38.97;;;;;;;5.11;100.00;94353.75;5094968;28;20219;-71
2021/12/26 07:12:19;;;;;;;68.70;37.67;;;;;;;5.07;100.00;94349.97;5088935;28;20659;-71
2021/12/26 07:14:46;;;;;;;67.23;37.13;;;;;;;5.07;100.00;94340.47;5088199;28;20203;-72
2021/12/26 07:17:15;;;;;;;72.33;37.77;;;;;;;4.93;100.00;94343.19;5094678;28;20201;-72
2021/12/26 07:19:42;;;;;;;77.83;41.70;;;;;;;4.72;100.00;94346.63;5088907;28;20204;-73
2021/12/26 07:22:10;;;;;;;82.47;44.37;;;;;;;4.61;100.00;94347.16;5088589;28;20248;-71
2021/12/26 07:24:43;;;;;;;79.63;44.43;;;;;;;4.58;100.00;94330.34;5087421;28;20212;-73
2021/12/26 07:27:11;;;;;;;78.03;40.43;;;;;;;4.77;100.00;94343.47;5088243;28;20216;-72
2021/12/26 07:29:40;;;;;;;73.87;40.57;;;;;;;4.74;100.00;94329.22;5096078;28;20196;-72
2021/12/26 07:32:08;;;;;;;75.40;41.00;;;;;;;4.93;100.00;94341.41;5092487;28;20221;-73
2021/12/26 07:34:35;;;;;;;60.40;34.47;;;;;;;4.96;100.00;94335.84;5092693;28;20659;-74
2021/12/26 07:37:02;;;;;;;65.03;35.20;;;;;;;5.03;100.00;94351.34;5086895;28;20193;-76
2021/12/26 07:39:31;;;;;;;59.03;33.50;;;;;;;5.04;100.00;94355.50;5091396;28;20196;-80
2021/12/26 07:42:00;;;;;;;52.30;28.53;;;;;;;5.04;100.00;94347.78;5088565;28;20201;-74
2021/12/26 07:44:28;;;;;;;52.47;28.13;;;;;;;4.99;100.00;94342.41;5088047;28;20687;-74
2021/12/26 07:46:55;;;;;;;55.40;28.87;;;;;;;5.04;100.00;94340.06;5090304;28;20205;-75
2021/12/26 07:49:24;;;;;;;60.17;33.40;;;;;;;5.15;100.00;94326.63;5087842;28;20666;-75
2021/12/26 07:51:54;;;;;;;66.43;35.13;;;;;;;5.33;100.00;94337.19;5090568;28;20227;-75
2021/12/26 07:54:23;;;;;;;61.97;33.87;;;;;;;5.44;100.00;94328.91;5083256;28;20262;-74
2021/12/26 07:56:51;;;;;;;51.90;30.73;;;;;;;5.50;100.00;94330.72;5081909;28;20200;-75
2021/12/26 07:59:21;;;;;;;54.47;29.43;;;;;;;5.62;100.00;94336.88;5088078;28;20688;-75
2021/12/26 08:01:48;;;;;;;54.50;29.97;;;;;;;5.64;100.00;94345.22;5085845;28;20206;-77
2021/12/26 08:04:17;;;;;;;47.53;25.13;;;;;;;5.70;100.00;94323.00;5088956;28;20656;-76
2021/12/26 08:06:44;;;;;;;53.67;25.27;;;;;;;5.70;100.00;94325.59;5090569;28;20743;-79
2021/12/26 08:09:14;;;;;;;42.97;25.30;;;;;;;5.79;100.00;94319.25;5090919;28;20666;-75
2021/12/26 08:11:42;;;;;;;49.20;25.57;;;;;;;5.83;100.00;94315.28;5088303;28;20237;-78
2021/12/26 08:14:10;;;;;;;38.17;22.47;;;;;;;5.82;100.00;94300.03;5099884;28;20199;-81
2021/12/26 08:16:40;;;;;;;39.13;21.93;;;;;;;5.88;100.00;94294.09;5099918;28;20270;-84
2021/12/26 08:19:10;;;;;;;39.23;22.53;;;;;;;5.87;100.00;94277.03;5090755;28;20206;-85
2021/12/26 08:21:38;;;;;;;41.17;21.67;;;;;;;5.80;100.00;94289.88;5094779;28;20191;-85
2021/12/26 08:24:07;;;;;;;40.83;22.73;;;;;;;6.03;100.00;94323.09;5114424;28;20197;-85
2021/12/26 08:26:35;;;;;;;39.57;21.63;;;;;;;6.09;100.00;94324.88;5100400;28;20236;-85
2021/12/26 08:29:03;;;;;;;39.63;22.20;;;;;;;6.13;100.00;94310.56;5108281;28;20240;-85
2021/12/26 08:31:31;;;;;;;42.00;22.10;;;;;;;6.16;100.00;94308.41;5086726;28;20222;-84
2021/12/26 08:34:01;;;;;;;40.83;22.33;;;;;;;6.04;100.00;94280.81;5097276;28;20205;-82
2021/12/26 08:36:28;;;;;;;35.47;21.37;;;;;;;6.12;100.00;94301.22;5103667;28;20595;-83
2021/12/26 08:38:59;;;;;;;34.70;20.63;;;;;;;5.88;100.00;94325.06;5105954;28;20233;-83
2021/12/26 08:41:26;;;;;;;35.60;20.20;;;;;;;5.82;100.00;94331.75;5099212;28;20203;-80
2021/12/26 08:43:55;;;;;;;38.60;21.80;;;;;;;5.77;100.00;94333.34;5091506;28;20657;-79
2021/12/26 08:46:24;;;;;;;38.97;21.83;;;;;;;5.90;100.00;94329.00;5094327;28;20218;-78
2021/12/26 08:48:53;;;;;;;35.33;20.87;;;;;;;6.09;100.00;94328.22;5100058;28;20211;-81
2021/12/26 08:51:36;;;;;;;32.50;19.73;;;;;;;6.25;100.00;94317.53;5090347;28;20224;-79
2021/12/26 08:54:13;;;;;;;36.67;19.20;;;;;;;6.36;100.00;94313.53;5089578;28;20207;-80
2021/12/26 08:56:42;;;;;;;36.20;19.80;;;;;;;6.51;100.00;94334.75;5091674;28;20228;-80
2021/12/26 08:59:30;;;;;;;32.53;19.00;;;;;;;6.61;100.00;94324.03;5095131;28;20212;-80
2021/12/26 09:01:59;;;;;;;30.93;18.93;;;;;;;6.74;100.00;94316.25;5093730;28;20277;-80
2021/12/26 09:04:29;;;;;;;35.10;20.57;;;;;;;6.83;100.00;94333.13;5091005;28;20580;-75
2021/12/26 09:06:59;;;;;;;37.80;20.63;;;;;;;6.87;100.00;94307.69;5099258;28;20211;-74
2021/12/26 09:09:30;;;;;;;36.87;21.00;;;;;;;6.87;100.00;94308.44;5093757;28;20197;-81
2021/12/26 09:11:58;;;;;;;34.93;20.50;;;;;;;6.96;100.00;94312.41;5105598;28;20311;-81
2021/12/26 09:14:28;;;;;;;34.33;20.17;;;;;;;6.95;100.00;94297.91;5093173;28;20227;-83
2021/12/26 09:17:00;;;;;;;35.83;20.97;;;;;;;6.99;100.00;94285.38;5104078;28;20208;-83
2021/12/26 09:19:29;;;;;;;38.67;21.37;;;;;;;6.96;100.00;94288.34;5099048;28;20267;-83
2021/12/26 09:22:00;;;;;;;34.87;20.23;;;;;;;7.04;100.00;94277.81;5093848;28;20204;-86
2021/12/26 09:24:28;;;;;;;41.67;22.20;;;;;;;7.14;100.00;94298.81;5095895;28;20212;-80
2021/12/26 09:26:56;;;;;;;42.67;24.20;;;;;;;7.15;100.00;94293.47;5098944;28;20201;-83
2021/12/26 09:29:24;;;;;;;38.10;21.90;;;;;;;7.24;100.00;94297.38;5103411;28;20236;-82
2021/12/26 09:31:53;;;;;;;43.50;23.33;;;;;;;7.34;100.00;94304.69;5097242;27;20250;-82
2021/12/26 09:34:23;;;;;;;35.97;21.87;;;;;;;7.44;100.00;94310.22;5103361;28;20200;-82
2021/12/26 09:36:58;;;;;;;35.73;22.13;;;;;;;7.52;100.00;94307.41;5094051;28;20577;-82
2021/12/26 09:39:26;;;;;;;37.67;22.63;;;;;;;7.44;100.00;94281.78;5094585;28;20200;-80
2021/12/26 09:41:54;;;;;;;38.60;25.20;;;;;;;7.61;100.00;94311.31;5102730;28;20215;-80
2021/12/26 09:44:23;;;;;;;45.20;25.90;;;;;;;7.56;100.00;94310.34;5100831;28;20201;-81
2021/12/26 09:46:51;;;;;;;49.03;27.73;;;;;;;7.71;100.00;94316.00;5090207;28;20212;-78
2021/12/26 09:49:19;;;;;;;41.53;23.97;;;;;;;7.62;100.00;94314.72;5096723;28;20196;-82
2021/12/26 09:51:46;;;;;;;36.67;21.70;;;;;;;7.73;100.00;94322.59;5098401;28;20219;-79
2021/12/26 09:54:17;;;;;;;40.27;22.93;;;;;;;7.70;100.00;94304.09;5097023;28;20249;-80
2021/12/26 09:56:44;;;;;;;41.17;22.97;;;;;;;7.49;100.00;94312.19;5086717;28;20201;-81
2021/12/26 09:59:17;;;;;;;39.70;22.73;;;;;;;7.25;100.00;94316.25;5106669;28;20256;-82
2021/12/26 10:01:48;;;;;;;42.07;23.47;;;;;;;7.35;100.00;94316.63;5105691;28;20290;-84
2021/12/26 10:04:23;;;;;;;39.53;22.60;;;;;;;7.64;100.00;94321.25;5094682;28;20199;-78
2021/12/26 10:06:54;;;;;;;35.87;21.10;;;;;;;8.02;100.00;94314.22;5096800;28;20199;-80
2021/12/26 10:09:23;;;;;;;37.03;21.27;;;;;;;8.52;100.00;94307.25;5096262;28;20200;-79
2021/12/26 10:11:53;;;;;;;28.10;18.00;;;;;;;8.95;99.46;94315.00;5097302;28;20239;-78
2021/12/26 10:14:22;;;;;;;30.07;16.90;;;;;;;9.38;95.85;94320.06;5091176;28;20292;-85
2021/12/26 10:16:53;;;;;;;28.07;14.43;;;;;;;9.76;93.47;94313.78;5093314;28;20197;-82
2021/12/26 10:19:34;;;;;;;31.73;14.63;;;;;;;10.44;90.22;94316.81;5097358;28;20204;-84
2021/12/26 10:22:05;;;;;;;34.27;14.07;;;;;;;10.81;86.06;94321.53;5098099;28;20216;-82
2021/12/26 10:24:36;;;;;;;27.13;12.67;;;;;;;11.16;83.07;94349.31;5095847;28;20603;-82
2021/12/26 10:27:05;;;;;;;23.43;13.27;;;;;;;11.55;82.92;94339.94;5100529;28;20448;-79
2021/12/26 10:29:38;;;;;;;19.90;12.73;;;;;;;11.65;81.30;94355.75;5092651;28;20279;-76
2021/12/26 10:32:09;;;;;;;21.07;12.00;;;;;;;12.12;80.41;94338.94;5088570;28;20200;-78
2021/12/26 10:34:40;;;;;;;26.23;11.90;;;;;;;12.61;76.93;94347.78;5091181;28;20238;-76
2021/12/26 10:37:11;;;;;;;26.73;13.33;;;;;;;12.98;75.80;94342.88;5087311;28;20196;-77
2021/12/26 10:39:43;;;;;;;17.73;11.00;;;;;;;13.59;72.82;94307.94;5089244;28;20234;-77
2021/12/26 10:42:17;;;;;;;16.53;11.03;;;;;;;13.68;70.42;94322.09;5088996;28;20471;-77
2021/12/26 10:44:46;;;;;;;23.37;12.63;;;;;;;13.73;70.33;94335.25;5088781;28;20208;-77
2021/12/26 10:47:16;;;;;;;19.20;11.77;;;;;;;14.10;69.43;94319.66;5090401;28;20641;-77
2021/12/26 10:50:03;;;;;;;17.27;11.00;;;;;;;14.64;68.01;94318.56;5094227;28;20628;-76
2021/12/26 10:52:33;;;;;;;16.77;11.27;;;;;;;15.22;65.79;94330.72;5087723;28;20285;-78
2021/12/26 10:55:07;;;;;;;20.63;11.60;;;;;;;15.21;65.16;94331.75;5085639;28;20780;-77
2021/12/26 10:57:37;;;;;;;17.93;10.63;;;;;;;15.62;64.87;94330.13;5088290;28;20744;-77
2021/12/26 11:00:17;;;;;;;16.70;10.07;;;;;;;15.82;63.59;94327.56;5097525;28;20827;-77
2021/12/26 11:02:48;;;;;;;17.37;11.30;;;;;;;15.78;62.96;94342.25;5089034;28;20193;-77
2021/12/26 11:05:19;;;;;;;21.10;11.37;;;;;;;15.85;62.51;94334.91;5088553;28;20633;-75
2021/12/26 11:07:52;;;;;;;20.67;12.23;;;;;;;16.03;62.57;94340.72;5085811;28;20197;-75
2021/12/26 11:10:25;;;;;;;19.77;12.63;;;;;;;16.07;61.63;94345.22;5090125;28;20223;-76
2021/12/26 11:12:55;;;;;;;21.07;13.33;;;;;;;16.28;61.14;94349.44;5091223;28;20710;-76
2021/12/26 11:15:25;;;;;;;22.13;13.50;;;;;;;16.40;60.45;94349.19;5087537;28;20193;-76
2021/12/26 11:18:00;;;;;;;19.63;13.17;;;;;;;16.36;60.15;94341.03;5090625;28;20192;-76
2021/12/26 11:20:33;;;;;;;25.60;14.10;;;;;;;16.40;59.58;94336.84;5089633;28;20249;-76
2021/12/26 11:23:09;;;;;;;26.67;14.07;;;;;;;16.30;60.24;94330.81;5088768;28;20195;-75
2021/12/26 11:25:42;;;;;;;18.93;13.33;;;;;;;15.99;60.80;94332.59;5088745;28;20257;-76
2021/12/26 11:28:12;;;;;;;23.23;13.20;;;;;;;15.86;60.08;94343.56;5086959;28;20228;-70
2021/12/26 11:30:41;;;;;;;22.23;13.27;;;;;;;15.78;61.20;94341.47;5084859;28;20192;-75
2021/12/26 11:33:09;;;;;;;20.07;13.83;;;;;;;15.65;61.86;94329.63;5087468;28;20213;-75